^^
Station Historical Data
Daily Summary for October 14, 2017 Units:  Metric    English   Both
« Previous Day
Next Day »
Daily Weekly Monthly Yearly Custom
  High: Low: Average:
Temperature: 27.1 °C 11.4 °C 16.7 °C
Dew Point: 7.4 °C -2.3 °C 3.3 °C
Humidity: 61% 15% 44%
Wind Speed: 25.9km/h 0km/h 10.3km/h
Wind Gust: 29km/h - -
Wind- - SSW
Pressure: 1014.4 hPa 1008 hPa -
Precipitation: 0 mm    
Historical Graphs
 
 
Tabular Data for October 14, 2017
Time Temperature Dew Point Pressure Wind Wind Speed Wind Gust Humidity Rainfall Rate (Hourly) solar Conditions
00:11 18.2 °C 7.3 °C 1009 hPa SSW 17.7 km/h 22.5 km/h 49% 0 mm 0.0 W/m2
00:22 17.9 °C 7.3 °C 1009 hPa SSW 20.9 km/h 22.5 km/h 50% 0 mm 0.0 W/m2
00:33 17.7 °C 7.4 °C 1009 hPa SSW 16.3 km/h 20.9 km/h 51% 0 mm 0.0 W/m2
00:42 17.4 °C 7.4 °C 1009 hPa SSW 16.3 km/h 19.3 km/h 52% 0 mm 0.0 W/m2
00:51 17.3 °C 7.3 °C 1009 hPa SSW 16.3 km/h 17.7 km/h 52% 0 mm 0.0 W/m2
02:56 14.6 °C 3.1 °C 1008.4 hPa SSW 1.4 km/h 4.8 km/h 46% 0 mm 0.0 W/m2
03:05 14.2 °C 3 °C 1008.4 hPa Calm     47% 0 mm 0.0 W/m2
03:10 13.8 °C 2.7 °C 1008.4 hPa Calm     47% 0 mm 0.0 W/m2
03:16 13.6 °C 2.8 °C 1008.4 hPa Calm     48% 0 mm 0.0 W/m2
03:21 13.3 °C 2.5 °C 1008.4 hPa Calm     48% 0 mm 0.0 W/m2
03:27 12.9 °C 2.4 °C 1008.4 hPa Calm     49% 0 mm 0.0 W/m2
03:32 12.8 °C 2.3 °C 1008 hPa Calm     49% 0 mm 0.0 W/m2
03:39 12.6 °C 2.2 °C 1008 hPa Calm     49% 0 mm 0.0 W/m2
03:50 12.2 °C 2.4 °C 1008 hPa Calm     51% 0 mm 0.0 W/m2
03:59 12.1 °C 2.8 °C 1008 hPa Calm     53% 0 mm 0.0 W/m2
04:08 12 °C 2.7 °C 1008.4 hPa Calm     53% 0 mm 0.0 W/m2
04:18 12.4 °C 2.5 °C 1008.4 hPa Calm     51% 0 mm 0.0 W/m2
04:24 12.6 °C 2.2 °C 1008.7 hPa Calm     49% 0 mm 0.0 W/m2
04:33 12.3 °C 1.9 °C 1008.7 hPa Calm     49% 0 mm 0.0 W/m2
04:38 12.3 °C 1.9 °C 1008.7 hPa Calm     49% 0 mm 0.0 W/m2
04:44 12.1 °C 2 °C 1009 hPa Calm     50% 0 mm 0.0 W/m2
04:54 12.2 °C 2.4 °C 1009 hPa SSW 7.9 km/h 9.7 km/h 51% 0 mm 0.0 W/m2
04:59 12.2 °C 2.6 °C 1009.4 hPa SSW 9.7 km/h 12.9 km/h 52% 0 mm 0.0 W/m2
05:14 13 °C 2.8 °C 1009 hPa SSW 11.1 km/h 11.3 km/h 50% 0 mm 0.0 W/m2
05:29 12.6 °C 2.4 °C 1009.4 hPa SSW 9.7 km/h 9.7 km/h 50% 0 mm 0.0 W/m2
05:35 12.3 °C 2.7 °C 1009.7 hPa SSW 9.7 km/h 11.3 km/h 52% 0 mm 0.0 W/m2
05:44 12.4 °C 3.3 °C 1009.7 hPa SSW 17.7 km/h 17.7 km/h 54% 0 mm 0.0 W/m2
05:49 12.4 °C 3.3 °C 1009.7 hPa SSW 9.7 km/h 14.5 km/h 54% 0 mm 0.0 W/m2
05:56 12.4 °C 3.6 °C 1009.7 hPa SSW 7.9 km/h 12.9 km/h 55% 0 mm 0.0 W/m2
06:01 12.3 °C 3.8 °C 1009.7 hPa SSW 7.9 km/h 12.9 km/h 56% 0 mm 0.0 W/m2
06:07 12.3 °C 3.8 °C 1009.7 hPa SSW 11.1 km/h 11.3 km/h 56% 0 mm 0.0 W/m2
06:18 12.1 °C 4.1 °C 1010 hPa SSW 6.4 km/h 11.3 km/h 58% 0 mm 5.0 W/m2
06:29 11.8 °C 3.8 °C 1010 hPa SSW 7.9 km/h 9.7 km/h 58% 0 mm 11.0 W/m2
06:35 11.5 °C 3.5 °C 1010 hPa Calm     58% 0 mm 21.0 W/m2
06:42 11.4 °C 3.7 °C 1010 hPa Calm     59% 0 mm 33.0 W/m2
07:16 12.8 °C 4.7 °C 1010.4 hPa Calm     58% 0 mm 146.0 W/m2
07:30 13.4 °C 5.8 °C 1010.4 hPa SSW 13 km/h 17.7 km/h 60% 0 mm 211.0 W/m2
07:37 13.6 °C 6.2 °C 1010.4 hPa SSW 11.1 km/h 16.1 km/h 61% 0 mm 253.0 W/m2
07:42 13.7 °C 6.1 °C 1010.4 hPa SSW 11.1 km/h 12.9 km/h 60% 0 mm 272.0 W/m2
07:51 14.2 °C 6.1 °C 1010.7 hPa SSW 13 km/h 14.5 km/h 58% 0 mm 309.0 W/m2
07:56 14.2 °C 6.1 °C 1010.7 hPa SSW 14.3 km/h 16.1 km/h 58% 0 mm 327.0 W/m2
08:12 14.4 °C 6.5 °C 1010.7 hPa SSW 13 km/h 17.7 km/h 59% 0 mm 362.0 W/m2
08:21 14.8 °C 6.4 °C 1010.7 hPa SSW 13 km/h 17.7 km/h 57% 0 mm 417.0 W/m2
08:31 15.2 °C 6.2 °C 1010.7 hPa SSW 13 km/h 16.1 km/h 55% 0 mm 452.0 W/m2
08:37 15.2 °C 6.2 °C 1010.7 hPa SSW 13 km/h 16.1 km/h 55% 0 mm 452.0 W/m2
08:50 15.9 °C 6.1 °C 1010.7 hPa SSW 11.1 km/h 16.1 km/h 52% 0 mm 504.0 W/m2
09:01 16.5 °C 4.8 °C 1011.1 hPa SSW 13 km/h 16.1 km/h 46% 0 mm 541.0 W/m2
09:22 17.3 °C 4.9 °C 1010.7 hPa SSW 11.1 km/h 12.9 km/h 44% 0 mm 603.0 W/m2
09:44 18.2 °C 5.4 °C 1010.7 hPa SSW 13 km/h 13 km/h 43% 0 mm 682.0 W/m2
14:22 26.4 °C -2.3 °C 1009.4 hPa Calm     15% 0 mm 837.0 W/m2
14:37 26.6 °C -1.3 °C 1009.4 hPa SSW 9.7 km/h 19.3 km/h 16% 0 mm 805.0 W/m2
14:51 26.7 °C -1.2 °C 1009.4 hPa SW 17.7 km/h 29 km/h 16% 0 mm 772.0 W/m2
15:00 26.4 °C -1.4 °C 1009.4 hPa SW 17.7 km/h 20.9 km/h 16% 0 mm 745.0 W/m2
15:10 26.6 °C -1.3 °C 1009.4 hPa SW 6.4 km/h 17.7 km/h 16% 0 mm 721.0 W/m2
15:21 26.6 °C -1.3 °C 1009.4 hPa SW 9.7 km/h 17.7 km/h 16% 0 mm 694.0 W/m2
15:47 26.7 °C -0.4 °C 1009.4 hPa SSW 22.7 km/h 24.1 km/h 17% 0 mm 622.0 W/m2
15:55 27.1 °C -0.9 °C 1009.4 hPa SSW 14.3 km/h 22.5 km/h 16% 0 mm 592.0 W/m2
16:06 27.1 °C -0.1 °C 1009.4 hPa SSW 25.9 km/h 25.9 km/h 17% 0 mm 563.0 W/m2
16:16 26.5 °C 0.2 °C 1009.4 hPa SSW 14.3 km/h 25.7 km/h 18% 0 mm 527.0 W/m2
16:52 26.2 °C 0 °C 1009.7 hPa SSW 16.3 km/h 19.3 km/h 18% 0 mm 408.0 W/m2
17:08 26.1 °C 0.7 °C 1009.7 hPa SSW 16.3 km/h 19.3 km/h 19% 0 mm 352.0 W/m2
17:22 25.8 °C 1.8 °C 1010 hPa SSW 20.9 km/h 24.1 km/h 21% 0 mm 297.0 W/m2
17:32 25.5 °C 1.6 °C 1010 hPa SSW 19.5 km/h 29 km/h 21% 0 mm 264.0 W/m2
17:53 24.8 °C 2.9 °C 1010 hPa SSW 20.9 km/h 25.7 km/h 24% 0 mm 179.0 W/m2
18:53 22.1 °C -1.3 °C 1011.1 hPa South 19.5 km/h 27.4 km/h 21% 0 mm 9.0 W/m2
19:08 21.6 °C 0.2 °C 1011.1 hPa South 19.5 km/h 22.5 km/h 24% 0 mm 0.0 W/m2
19:24 21.2 °C -0.2 °C 1011.4 hPa South 22.7 km/h 29 km/h 24% 0 mm 0.0 W/m2
20:09 19.9 °C 2.7 °C 1012.1 hPa South 19.5 km/h 22.5 km/h 32% 0 mm 0.0 W/m2
20:41 18.8 °C 3.4 °C 1012.8 hPa South 13 km/h 22.5 km/h 36% 0 mm 0.0 W/m2
21:21 17.7 °C 4.3 °C 1013.1 hPa South 13 km/h 16.1 km/h 41% 0 mm 0.0 W/m2
22:00 16.6 °C 4.6 °C 1013.4 hPa South 9.7 km/h 16.1 km/h 45% 0 mm 0.0 W/m2
22:12 16.3 °C 5 °C 1013.4 hPa South 11.1 km/h 12.9 km/h 47% 0 mm 0.0 W/m2
22:19 16.1 °C 4.8 °C 1013.8 hPa South 13 km/h 13 km/h 47% 0 mm 0.0 W/m2
22:24 16 °C 5 °C 1013.8 hPa South 16.3 km/h 16.3 km/h 48% 0 mm 0.0 W/m2
22:30 15.9 °C 4.9 °C 1013.8 hPa South 13 km/h 14.5 km/h 48% 0 mm 0.0 W/m2
22:35 15.8 °C 4.8 °C 1013.8 hPa South 9.7 km/h 14.5 km/h 48% 0 mm 0.0 W/m2
22:40 15.7 °C 4.7 °C 1014.1 hPa South 9.7 km/h 14.5 km/h 48% 0 mm 0.0 W/m2
22:50 15.6 °C 4.6 °C 1014.1 hPa South 11.1 km/h 14.5 km/h 48% 0 mm 0.0 W/m2
23:00 15.3 °C 4.6 °C 1014.4 hPa South 19.5 km/h 19.5 km/h 49% 0 mm 0.0 W/m2
23:05 15.2 °C 4.8 °C 1014.4 hPa South 11.1 km/h 14.5 km/h 50% 0 mm 0.0 W/m2
23:10 15.1 °C 4.8 °C 1014.4 hPa South 13 km/h 14.5 km/h 50% 0 mm 0.0 W/m2
23:15 14.9 °C 4.9 °C 1014.4 hPa South 7.9 km/h 11.3 km/h 51% 0 mm 0.0 W/m2
23:20 14.8 °C 4.8 °C 1014.4 hPa South 9.7 km/h 12.9 km/h 51% 0 mm 0.0 W/m2
23:25 14.6 °C 4.6 °C 1014.4 hPa South 9.7 km/h 14.5 km/h 51% 0 mm 0.0 W/m2
23:35 14.3 °C 4.6 °C 1014.4 hPa South 9.7 km/h 11.3 km/h 52% 0 mm 0.0 W/m2
23:40 14.2 °C 4.5 °C 1014.4 hPa South 7.9 km/h 12.9 km/h 52% 0 mm 0.0 W/m2
23:50 14.1 °C 4.7 °C 1014.4 hPa South 9.7 km/h 14.5 km/h 53% 0 mm 0.0 W/m2
Canyon Roadhouse, Fishriver Canyon, Namibia
Compliments of Weather Underground - 2 mb